createdAt,value
2022-08-09T00:00:24.079Z,3.60
2022-08-09T00:01:24.148Z,3.20
2022-08-09T00:02:25.915Z,3.30
2022-08-09T00:04:03.691Z,3.50
2022-08-09T00:04:34.983Z,3.70
2022-08-09T00:06:18.465Z,3.40
2022-08-09T00:06:25.028Z,3.30
2022-08-09T00:07:24.006Z,3.50
2022-08-09T00:08:32.151Z,3.60
2022-08-09T00:09:24.981Z,3.30
2022-08-09T00:10:24.659Z,3.60
2022-08-09T00:11:25.163Z,3.70
2022-08-09T00:12:23.988Z,3.70
2022-08-09T00:13:23.957Z,3.60
2022-08-09T00:14:30.644Z,3.40
2022-08-09T00:15:35.233Z,3.70
2022-08-09T00:16:26.233Z,3.30
2022-08-09T00:18:10.794Z,3.50
2022-08-09T00:18:24.906Z,3.40
2022-08-09T00:19:23.879Z,3.50
2022-08-09T00:20:23.867Z,3.60
2022-08-09T00:21:23.861Z,3.50
2022-08-09T00:22:23.889Z,3.30
2022-08-09T00:23:56.663Z,3.30
2022-08-09T00:24:24.812Z,3.50
2022-08-09T00:25:32.057Z,3.40
2022-08-09T00:26:30.005Z,3.70
2022-08-09T00:27:24.805Z,3.50
2022-08-09T00:28:26.392Z,3.80
2022-08-09T00:29:39.706Z,3.60
2022-08-09T00:30:27.027Z,3.40
2022-08-09T00:31:57.482Z,3.50
2022-08-09T00:32:25.347Z,3.70
2022-08-09T00:33:32.742Z,3.70
2022-08-09T00:34:24.771Z,3.60
2022-08-09T00:35:23.688Z,3.70
2022-08-09T00:36:29.683Z,3.60
2022-08-09T00:37:24.679Z,3.90
2022-08-09T00:38:23.673Z,3.50
2022-08-09T00:40:13.663Z,3.30
2022-08-09T00:40:30.964Z,3.70
2022-08-09T00:44:10.642Z,3.50
2022-08-09T00:44:10.889Z,3.60
2022-08-09T00:44:14.881Z,3.70
2022-08-09T00:44:27.308Z,3.80
2022-08-09T00:45:23.590Z,3.40
2022-08-09T00:46:55.219Z,3.80
2022-08-09T00:47:25.271Z,3.70
2022-08-09T00:48:23.561Z,3.60
2022-08-09T00:49:23.571Z,3.60
2022-08-09T00:50:23.555Z,3.70
2022-08-09T00:51:23.525Z,3.60
2022-08-09T00:52:30.420Z,3.40
2022-08-09T00:53:24.646Z,3.80
2022-08-09T00:54:23.501Z,3.50
2022-08-09T00:56:03.380Z,3.60
2022-08-09T00:56:24.520Z,3.40
2022-08-09T00:57:24.837Z,3.60
2022-08-09T00:58:27.677Z,3.70
2022-08-09T00:59:40.948Z,3.80
2022-08-09T01:00:24.428Z,3.50
2022-08-09T01:01:23.501Z,3.90
2022-08-09T01:02:24.486Z,3.90
2022-08-09T01:03:23.387Z,3.80
2022-08-09T01:04:24.402Z,3.80
2022-08-09T01:05:23.383Z,3.80
2022-08-09T01:06:25.532Z,3.70
2022-08-09T01:07:38.113Z,3.90
2022-08-09T01:08:27.113Z,4.10
2022-08-09T01:09:23.408Z,3.50
2022-08-09T01:10:23.348Z,3.80
2022-08-09T01:11:24.307Z,3.50
2022-08-09T01:12:23.297Z,3.90
2022-08-09T01:13:23.285Z,3.60
2022-08-09T01:14:23.266Z,3.70
2022-08-09T01:15:23.257Z,3.80
2022-08-09T01:16:23.261Z,3.70
2022-08-09T01:17:23.236Z,3.80
2022-08-09T01:18:29.991Z,3.50
2022-08-09T01:19:43.254Z,3.90
2022-08-09T01:20:24.198Z,3.90
2022-08-09T01:21:24.731Z,3.70
2022-08-09T01:22:23.184Z,3.80
2022-08-09T01:24:01.748Z,3.80
2022-08-09T01:24:24.158Z,3.90
2022-08-09T01:25:23.144Z,3.60
2022-08-09T01:26:23.139Z,3.50
2022-08-09T01:27:23.177Z,3.40
2022-08-09T01:28:23.121Z,3.70
2022-08-09T01:29:23.131Z,3.50
2022-08-09T01:30:28.510Z,3.60
2022-08-09T01:32:30.217Z,3.70
2022-08-09T01:32:44.011Z,3.70
2022-08-09T01:33:24.074Z,3.40
2022-08-09T01:34:23.063Z,3.70
2022-08-09T01:35:37.206Z,3.40
2022-08-09T01:36:24.057Z,3.60
2022-08-09T01:38:05.702Z,3.50
2022-08-09T01:38:24.516Z,3.60
2022-08-09T01:39:23.324Z,3.80
2022-08-09T01:40:28.264Z,3.90
2022-08-09T01:41:26.100Z,3.70
2022-08-09T01:42:22.961Z,3.70
2022-08-09T01:43:24.220Z,3.60
2022-08-09T01:44:22.937Z,3.80
2022-08-09T01:45:22.932Z,3.80
2022-08-09T01:46:24.591Z,3.50
2022-08-09T01:47:22.908Z,3.90
2022-08-09T01:48:24.047Z,3.80
2022-08-09T01:49:24.339Z,3.70
2022-08-09T01:50:36.512Z,3.70
2022-08-09T01:51:23.863Z,3.80
2022-08-09T01:52:22.852Z,3.80
2022-08-09T01:53:22.845Z,3.70
2022-08-09T01:54:22.829Z,3.60
2022-08-09T01:55:22.834Z,3.80
2022-08-09T01:56:22.814Z,3.60
2022-08-09T01:57:22.813Z,3.70
2022-08-09T01:58:24.218Z,3.70
2022-08-09T01:59:23.009Z,3.70
2022-08-09T02:00:35.525Z,3.70
2022-08-09T02:01:57.859Z,3.70
2022-08-09T02:02:23.871Z,3.60
2022-08-09T02:03:23.757Z,4.00
2022-08-09T02:04:22.720Z,3.50
2022-08-09T02:05:37.644Z,3.40
2022-08-09T02:06:23.833Z,3.20
2022-08-09T02:08:40.511Z,3.70
2022-08-09T02:08:40.763Z,3.70
2022-08-09T02:09:23.668Z,3.70
2022-08-09T02:10:29.680Z,3.40
2022-08-09T02:11:23.721Z,3.60
2022-08-09T02:12:22.638Z,3.50
2022-08-09T02:13:26.307Z,3.80
2022-08-09T02:14:26.585Z,3.90
2022-08-09T02:15:22.682Z,3.70
2022-08-09T02:16:33.848Z,3.60
2022-08-09T02:18:00.199Z,3.80
2022-08-09T02:18:23.794Z,3.60
2022-08-09T02:19:22.576Z,3.90
2022-08-09T02:20:25.080Z,3.70
2022-08-09T02:21:23.558Z,3.60
2022-08-09T02:22:31.642Z,3.70
2022-08-09T02:23:23.515Z,3.90
2022-08-09T02:24:26.096Z,3.60
2022-08-09T02:25:22.500Z,3.80
2022-08-09T02:26:26.784Z,3.80
2022-08-09T02:27:43.139Z,3.90
2022-08-09T02:28:24.126Z,3.80
2022-08-09T02:29:22.455Z,3.90
2022-08-09T02:30:22.434Z,3.80
2022-08-09T02:31:22.453Z,4.00
2022-08-09T02:32:22.553Z,4.10
2022-08-09T02:33:22.956Z,3.80
2022-08-09T02:34:40.376Z,3.80
2022-08-09T02:36:01.926Z,4.00
2022-08-09T02:36:23.386Z,3.80
2022-08-09T02:37:22.374Z,3.70
2022-08-09T02:38:28.941Z,4.00
2022-08-09T02:39:34.233Z,3.90
2022-08-09T02:40:26.830Z,3.90
2022-08-09T02:41:22.324Z,4.00
2022-08-09T02:42:24.789Z,3.90
2022-08-09T02:43:22.317Z,4.00
2022-08-09T02:44:29.032Z,3.90
2022-08-09T02:45:26.583Z,3.90
2022-08-09T02:46:23.254Z,3.80
2022-08-09T02:47:22.257Z,4.00
2022-08-09T02:48:31.040Z,4.10
2022-08-09T02:49:27.138Z,4.10
2022-08-09T02:50:24.302Z,4.00
2022-08-09T02:51:22.206Z,4.00
2022-08-09T02:52:22.204Z,4.00
2022-08-09T02:53:26.248Z,3.80
2022-08-09T02:54:22.188Z,3.70
2022-08-09T02:55:22.170Z,3.80
2022-08-09T02:56:22.168Z,3.90
2022-08-09T02:57:23.266Z,3.90
2022-08-09T02:58:32.786Z,3.90
2022-08-09T02:59:26.296Z,3.90
2022-08-09T03:00:25.872Z,3.80
2022-08-09T03:01:29.359Z,3.90
2022-08-09T03:02:23.175Z,4.10
2022-08-09T03:03:37.196Z,4.10
2022-08-09T03:04:28.786Z,3.70
2022-08-09T03:05:23.060Z,3.80
2022-08-09T03:06:22.043Z,4.20
2022-08-09T03:07:22.121Z,4.10
2022-08-09T03:08:22.027Z,4.20
2022-08-09T03:09:22.023Z,3.90
2022-08-09T03:10:21.999Z,4.30
2022-08-09T03:12:04.877Z,4.30
2022-08-09T03:12:22.986Z,4.10
2022-08-09T03:13:22.015Z,4.20
2022-08-09T03:14:21.975Z,4.10
2022-08-09T03:15:23.163Z,3.80
2022-08-09T03:16:21.946Z,4.10
2022-08-09T03:17:27.017Z,3.80
2022-08-09T03:18:31.078Z,4.10
2022-08-09T03:19:58.002Z,4.20
2022-08-09T03:20:23.560Z,4.20
2022-08-09T03:21:25.757Z,3.80
2022-08-09T03:22:30.034Z,4.10
2022-08-09T03:23:24.422Z,3.90
2022-08-09T03:24:31.280Z,4.00
2022-08-09T03:25:27.037Z,3.70
2022-08-09T03:26:30.779Z,3.70
2022-08-09T03:27:22.815Z,3.90
2022-08-09T03:28:21.817Z,3.70
2022-08-09T03:29:22.634Z,3.80
2022-08-09T03:30:28.083Z,4.00
2022-08-09T03:31:22.915Z,3.90
2022-08-09T03:32:21.749Z,4.00
2022-08-09T03:33:21.750Z,4.00
2022-08-09T03:34:21.742Z,4.00
2022-08-09T03:35:44.192Z,4.00
2022-08-09T03:36:27.285Z,3.80
2022-08-09T03:37:54.306Z,3.90
2022-08-09T03:38:28.798Z,3.90
2022-08-09T03:39:27.001Z,3.80
2022-08-09T03:40:22.705Z,4.20
2022-08-09T03:41:21.669Z,4.00
2022-08-09T03:42:26.316Z,4.00
2022-08-09T03:43:22.673Z,4.00
2022-08-09T03:44:21.621Z,3.90
2022-08-09T03:46:04.207Z,3.80
2022-08-09T03:46:29.173Z,4.00
2022-08-09T03:47:22.572Z,3.80
2022-08-09T03:48:29.270Z,4.10
2022-08-09T03:49:24.040Z,3.60
2022-08-09T03:50:27.728Z,3.70
2022-08-09T03:51:43.830Z,3.90
2022-08-09T03:52:22.545Z,4.00
2022-08-09T03:53:22.592Z,3.80
2022-08-09T03:54:29.601Z,3.70
2022-08-09T03:55:22.482Z,3.70
2022-08-09T03:56:21.478Z,4.00
2022-08-09T03:57:21.667Z,3.90
2022-08-09T03:58:21.462Z,3.90
2022-08-09T03:59:32.984Z,4.00
2022-08-09T04:00:22.445Z,3.90
2022-08-09T04:01:21.429Z,4.10
2022-08-09T04:02:29.928Z,4.00
2022-08-09T04:03:35.492Z,3.80
2022-08-09T04:04:24.696Z,4.20
2022-08-09T04:05:27.520Z,4.00
2022-08-09T04:06:22.427Z,4.20
2022-08-09T04:07:21.357Z,4.10
2022-08-09T04:08:28.952Z,4.00
2022-08-09T04:09:48.441Z,4.00
2022-08-09T04:10:29.719Z,4.00
2022-08-09T04:11:22.301Z,4.10
2022-08-09T04:12:30.061Z,4.00
2022-08-09T04:13:44.947Z,3.80
2022-08-09T04:14:53.466Z,4.00
2022-08-09T04:15:38.835Z,3.70
2022-08-09T04:16:22.258Z,3.90
2022-08-09T04:17:21.232Z,3.90
2022-08-09T04:18:21.903Z,3.80
2022-08-09T04:19:30.314Z,3.70
2022-08-09T04:20:22.207Z,3.60
2022-08-09T04:21:22.191Z,4.00
2022-08-09T04:22:21.212Z,3.90
2022-08-09T04:23:24.382Z,3.70
2022-08-09T04:24:21.155Z,3.60
2022-08-09T04:25:22.168Z,3.80
2022-08-09T04:26:23.343Z,3.80
2022-08-09T04:27:22.041Z,4.00
2022-08-09T04:28:34.053Z,3.70
2022-08-09T04:29:22.162Z,4.00
2022-08-09T04:30:23.460Z,3.90
2022-08-09T04:31:22.091Z,3.90
2022-08-09T04:32:31.342Z,3.90
2022-08-09T04:33:22.055Z,3.70
2022-08-09T04:34:31.741Z,3.90
2022-08-09T04:35:22.111Z,4.10
2022-08-09T04:36:21.025Z,4.00
2022-08-09T04:37:21.019Z,4.00
2022-08-09T04:38:21.004Z,4.00
2022-08-09T04:39:21.046Z,4.40
2022-08-09T04:40:35.821Z,4.10
2022-08-09T04:41:24.044Z,4.70
2022-08-09T04:42:20.952Z,3.90
2022-08-09T04:43:20.951Z,3.70
2022-08-09T04:44:20.936Z,3.90
2022-08-09T04:45:20.928Z,3.80
2022-08-09T04:46:37.967Z,3.60
2022-08-09T04:47:21.894Z,3.70
2022-08-09T04:48:20.901Z,4.00
2022-08-09T04:49:30.108Z,3.70
2022-08-09T04:50:21.877Z,3.90
2022-08-09T04:51:21.959Z,3.80
2022-08-09T04:52:22.162Z,3.60
2022-08-09T04:53:21.825Z,3.90
2022-08-09T04:54:20.840Z,3.80
2022-08-09T04:55:20.817Z,3.70
2022-08-09T04:56:20.799Z,3.70
2022-08-09T04:57:24.186Z,3.90
2022-08-09T04:58:20.797Z,3.70
2022-08-09T04:59:21.116Z,3.90
2022-08-09T05:00:20.747Z,4.00
2022-08-09T05:01:20.751Z,4.00
2022-08-09T05:02:20.740Z,4.10
2022-08-09T05:03:41.086Z,3.90
2022-08-09T05:04:21.872Z,3.60
2022-08-09T05:05:32.151Z,3.80
2022-08-09T05:06:27.121Z,4.10
2022-08-09T05:07:21.670Z,4.00
2022-08-09T05:08:20.659Z,3.90
2022-08-09T05:09:20.657Z,3.90
2022-08-09T05:10:20.662Z,3.80
2022-08-09T05:11:20.662Z,3.90
2022-08-09T05:12:23.613Z,3.90
2022-08-09T05:13:20.615Z,3.60
2022-08-09T05:14:21.592Z,3.90
2022-08-09T05:15:38.360Z,3.80
2022-08-09T05:16:21.579Z,3.90
2022-08-09T05:18:39.450Z,3.30
2022-08-09T05:18:50.488Z,3.60
2022-08-09T05:19:24.306Z,3.70
2022-08-09T05:20:20.534Z,3.80
2022-08-09T05:21:24.480Z,3.30
2022-08-09T05:22:35.761Z,3.50
2022-08-09T05:23:54.130Z,3.50
2022-08-09T05:24:21.527Z,3.30
2022-08-09T05:25:20.662Z,3.30
2022-08-09T05:26:26.589Z,3.60
2022-08-09T05:27:21.509Z,3.10
2022-08-09T05:28:20.461Z,3.60
2022-08-09T05:29:21.692Z,3.30
2022-08-09T05:30:20.460Z,3.60
2022-08-09T05:31:37.063Z,3.30
2022-08-09T05:32:21.407Z,3.10
2022-08-09T05:33:26.408Z,3.40
2022-08-09T05:34:21.375Z,3.10
2022-08-09T05:35:22.049Z,3.50
2022-08-09T05:36:20.369Z,3.40
2022-08-09T05:37:21.347Z,3.10
2022-08-09T05:38:21.921Z,3.10
2022-08-09T05:39:21.650Z,3.40
2022-08-09T05:40:21.737Z,3.20
2022-08-09T05:41:20.305Z,3.10
2022-08-09T05:42:21.571Z,3.00
2022-08-09T05:43:20.269Z,3.10
2022-08-09T05:44:22.226Z,3.20
2022-08-09T05:45:21.258Z,3.20
2022-08-09T05:46:20.239Z,3.50
2022-08-09T05:47:21.737Z,3.00
2022-08-09T05:48:20.243Z,3.00
2022-08-09T05:50:24.209Z,3.00
2022-08-09T05:50:32.196Z,3.00
2022-08-09T05:51:42.995Z,2.70
2022-08-09T05:52:21.183Z,3.10
2022-08-09T05:53:30.955Z,3.00
2022-08-09T05:54:21.158Z,3.10
2022-08-09T05:55:21.295Z,2.90
2022-08-09T05:56:20.213Z,2.90
2022-08-09T05:57:25.064Z,2.70
2022-08-09T05:58:21.115Z,2.90
2022-08-09T05:59:20.118Z,3.00
2022-08-09T06:00:20.091Z,3.10
2022-08-09T06:01:20.076Z,2.90
2022-08-09T06:02:20.078Z,3.00
2022-08-09T06:03:20.554Z,2.90
2022-08-09T06:04:23.294Z,2.90
2022-08-09T06:05:20.035Z,3.20
2022-08-09T06:06:21.020Z,3.10
2022-08-09T06:07:21.483Z,2.70
2022-08-09T06:08:24.426Z,2.90
2022-08-09T06:09:40.417Z,2.80
2022-08-09T06:10:20.984Z,2.90
2022-08-09T06:11:19.973Z,2.80
2022-08-09T06:12:20.964Z,2.50
2022-08-09T06:13:21.183Z,2.90
2022-08-09T06:14:19.943Z,2.90
2022-08-09T06:15:19.953Z,2.90
2022-08-09T06:16:19.918Z,2.60
2022-08-09T06:17:19.903Z,2.70
2022-08-09T06:18:20.461Z,2.60
2022-08-09T06:19:21.094Z,2.70
2022-08-09T06:20:19.869Z,2.80
2022-08-09T06:21:19.861Z,3.00
2022-08-09T06:22:22.492Z,2.90
2022-08-09T06:23:20.828Z,2.70
2022-08-09T06:24:19.822Z,2.90
2022-08-09T06:25:21.287Z,3.00
2022-08-09T06:26:20.107Z,2.80
2022-08-09T06:27:19.796Z,3.00
2022-08-09T06:28:19.777Z,2.60
2022-08-09T06:29:21.437Z,2.90
2022-08-09T06:30:19.757Z,3.00
2022-08-09T06:31:31.466Z,2.70
2022-08-09T06:32:53.221Z,2.70
2022-08-09T06:33:39.757Z,2.90
2022-08-09T06:34:22.688Z,2.70
2022-08-09T06:35:19.703Z,2.50
2022-08-09T06:36:19.710Z,2.70
2022-08-09T06:37:20.675Z,2.90
2022-08-09T06:38:20.668Z,2.80
2022-08-09T06:39:19.742Z,2.60
2022-08-09T06:40:21.573Z,2.80
2022-08-09T06:41:20.434Z,2.60
2022-08-09T06:42:30.317Z,2.50
2022-08-09T06:43:20.620Z,2.50
2022-08-09T06:44:19.608Z,2.80
2022-08-09T06:46:05.162Z,2.60
2022-08-09T06:46:40.218Z,2.60
2022-08-09T06:47:20.581Z,2.60
2022-08-09T06:48:30.229Z,2.70
2022-08-09T06:49:29.166Z,2.30
2022-08-09T06:50:22.428Z,2.60
2022-08-09T06:51:19.529Z,2.60
2022-08-09T06:52:19.531Z,2.70
2022-08-09T06:53:19.632Z,2.90
2022-08-09T06:54:20.448Z,2.40
2022-08-09T06:55:23.222Z,2.50
2022-08-09T06:56:19.465Z,2.70
2022-08-09T06:57:19.453Z,2.70
2022-08-09T07:00:46.942Z,2.40
2022-08-09T07:00:49.653Z,2.50
2022-08-09T07:00:55.743Z,2.70
2022-08-09T07:01:20.420Z,2.70
2022-08-09T07:02:19.490Z,2.70
2022-08-09T07:03:19.387Z,2.60
2022-08-09T07:04:20.461Z,2.90
2022-08-09T07:05:19.386Z,2.60
2022-08-09T07:06:19.560Z,2.40
2022-08-09T07:07:58.943Z,2.70
2022-08-09T07:08:20.346Z,2.60
2022-08-09T07:09:56.158Z,2.50
2022-08-09T07:10:30.003Z,2.50
2022-08-09T07:11:25.240Z,2.40
2022-08-09T07:12:20.437Z,2.60
2022-08-09T07:13:28.393Z,2.50
2022-08-09T07:14:26.782Z,2.60
2022-08-09T07:16:35.204Z,2.60
2022-08-09T07:16:42.868Z,2.70
2022-08-09T07:17:20.248Z,2.40
2022-08-09T07:18:19.246Z,2.50
2022-08-09T07:19:23.394Z,2.70
2022-08-09T07:20:19.201Z,2.70
2022-08-09T07:21:20.010Z,2.70
2022-08-09T07:22:34.273Z,2.50
2022-08-09T07:23:20.223Z,2.60
2022-08-09T07:24:19.159Z,2.40
2022-08-09T07:25:19.155Z,2.70
2022-08-09T07:26:19.148Z,2.80
2022-08-09T07:27:33.044Z,2.70
2022-08-09T07:28:26.172Z,2.40
2022-08-09T07:29:20.116Z,2.60
2022-08-09T07:30:19.100Z,2.60
2022-08-09T07:31:19.207Z,2.70
2022-08-09T07:32:19.084Z,2.60
2022-08-09T07:33:19.096Z,2.50
2022-08-09T07:34:20.139Z,2.50
2022-08-09T07:35:19.300Z,2.60
2022-08-09T07:36:19.036Z,2.90
2022-08-09T07:37:19.080Z,2.70
2022-08-09T07:38:19.016Z,2.60
2022-08-09T07:39:20.130Z,2.60
2022-08-09T07:40:20.637Z,2.50
2022-08-09T07:41:20.101Z,2.70
2022-08-09T07:42:18.961Z,2.40
2022-08-09T07:43:18.974Z,2.70
2022-08-09T07:44:18.954Z,2.50
2022-08-09T07:45:33.306Z,2.50
2022-08-09T07:46:19.910Z,2.70
2022-08-09T07:47:18.921Z,2.60
2022-08-09T07:48:25.604Z,2.40
2022-08-09T07:49:19.915Z,2.50
2022-08-09T07:50:18.875Z,2.60
2022-08-09T07:52:04.466Z,2.60
2022-08-09T07:52:19.860Z,2.50
2022-08-09T07:53:18.881Z,2.60
2022-08-09T07:54:28.281Z,2.70
2022-08-09T07:55:19.871Z,2.60
2022-08-09T07:56:26.909Z,2.50
2022-08-09T07:57:19.791Z,2.50
2022-08-09T07:58:18.787Z,2.40
2022-08-09T07:59:25.116Z,2.60
2022-08-09T08:00:20.309Z,2.50
2022-08-09T08:01:21.690Z,2.50
2022-08-09T08:02:20.225Z,2.80
2022-08-09T08:03:18.753Z,2.90
2022-08-09T08:04:19.723Z,2.60
2022-08-09T08:05:19.714Z,2.50
2022-08-09T08:06:21.194Z,2.60
2022-08-09T08:08:44.262Z,2.50
2022-08-09T08:09:01.720Z,2.50
2022-08-09T08:09:38.510Z,2.50
2022-08-09T08:10:19.669Z,2.50
2022-08-09T08:12:24.359Z,2.40
2022-08-09T08:12:27.773Z,2.60
2022-08-09T08:13:19.628Z,2.70
2022-08-09T08:14:18.653Z,2.70
2022-08-09T08:15:18.632Z,2.60
2022-08-09T08:16:31.851Z,2.60
2022-08-09T08:17:35.336Z,2.70
2022-08-09T08:18:19.590Z,2.60
2022-08-09T08:19:18.560Z,2.50
2022-08-09T08:20:19.491Z,2.80
2022-08-09T08:21:21.262Z,2.60
2022-08-09T08:22:18.536Z,2.60
2022-08-09T08:23:19.534Z,2.60
2022-08-09T08:24:18.511Z,2.40
2022-08-09T08:25:19.419Z,2.60
2022-08-09T08:26:18.505Z,2.70
2022-08-09T08:27:19.494Z,2.70
2022-08-09T08:28:26.028Z,2.60
2022-08-09T08:29:20.211Z,2.80
2022-08-09T08:30:19.497Z,2.50
2022-08-09T08:31:18.420Z,2.60
2022-08-09T08:32:24.404Z,2.70
2022-08-09T08:33:23.083Z,2.50
2022-08-09T08:34:20.938Z,2.40
2022-08-09T08:35:19.406Z,2.60
2022-08-09T08:36:28.318Z,2.70
2022-08-09T08:37:19.365Z,2.40
2022-08-09T08:38:18.349Z,2.70
2022-08-09T08:39:18.437Z,2.40
2022-08-09T08:40:18.995Z,2.70
2022-08-09T08:41:18.326Z,2.70
2022-08-09T08:42:18.323Z,2.30
2022-08-09T08:43:19.296Z,2.70
2022-08-09T08:44:23.025Z,2.60
2022-08-09T08:45:19.280Z,2.50
2022-08-09T08:46:33.693Z,2.70
2022-08-09T08:47:19.315Z,2.50
2022-08-09T08:48:19.528Z,2.40
2022-08-09T08:49:18.929Z,2.60
2022-08-09T08:50:18.717Z,2.30
2022-08-09T08:51:18.358Z,2.40
2022-08-09T08:52:57.531Z,2.70
2022-08-09T08:53:21.984Z,2.50
2022-08-09T08:54:20.545Z,2.30
2022-08-09T08:55:23.165Z,2.40
2022-08-09T08:56:28.254Z,2.40
2022-08-09T08:57:19.132Z,2.50
2022-08-09T08:58:18.121Z,2.60
2022-08-09T08:59:20.476Z,2.30
2022-08-09T09:00:20.782Z,2.60
2022-08-09T09:01:19.721Z,2.40
2022-08-09T09:02:30.645Z,2.60
2022-08-09T09:03:22.651Z,2.50
2022-08-09T09:04:18.082Z,2.40
2022-08-09T09:05:19.051Z,2.20
2022-08-09T09:06:19.043Z,2.40
2022-08-09T09:07:18.058Z,2.30
2022-08-09T09:08:30.142Z,2.50
2022-08-09T09:09:21.277Z,2.30
2022-08-09T09:10:19.010Z,2.40
2022-08-09T09:11:19.937Z,2.20
2022-08-09T09:12:17.978Z,2.40
2022-08-09T09:13:18.004Z,2.20
2022-08-09T09:14:17.945Z,2.40
2022-08-09T09:15:28.364Z,2.30
2022-08-09T09:16:18.949Z,2.30
2022-08-09T09:17:18.919Z,2.50
2022-08-09T09:18:17.909Z,2.50
2022-08-09T09:19:42.183Z,2.40
2022-08-09T09:20:18.885Z,2.30
2022-08-09T09:21:17.878Z,2.50
2022-08-09T09:22:26.574Z,2.40
2022-08-09T09:23:18.890Z,2.20
2022-08-09T09:24:21.577Z,2.30
2022-08-09T09:26:04.472Z,2.50
2022-08-09T09:26:18.824Z,2.30
2022-08-09T09:28:04.039Z,2.20
2022-08-09T09:28:21.286Z,2.30
2022-08-09T09:29:19.042Z,2.10
2022-08-09T09:30:38.289Z,2.20
2022-08-09T09:32:01.848Z,2.10
2022-08-09T09:32:18.772Z,2.20
2022-08-09T09:33:18.739Z,2.10
2022-08-09T09:34:18.485Z,2.20
2022-08-09T09:35:17.893Z,2.10
2022-08-09T09:36:20.858Z,2.10
2022-08-09T09:37:17.699Z,2.30
2022-08-09T09:38:27.531Z,1.90
2022-08-09T09:39:19.951Z,2.10
2022-08-09T09:40:17.993Z,2.30
2022-08-09T09:41:17.665Z,2.10
2022-08-09T09:42:17.646Z,2.20
2022-08-09T09:43:17.681Z,2.30
2022-08-09T09:44:25.575Z,2.40
2022-08-09T09:45:26.744Z,2.40
2022-08-09T09:47:21.496Z,1.80
2022-08-09T09:48:17.597Z,2.10
2022-08-09T09:49:17.563Z,2.00
2022-08-09T09:50:18.608Z,2.20
2022-08-09T09:51:26.135Z,2.10
2022-08-09T09:52:36.240Z,1.90
2022-08-09T09:53:20.116Z,2.20
2022-08-09T09:54:20.739Z,2.00
2022-08-09T09:55:28.442Z,2.10
2022-08-09T09:56:19.853Z,2.30
2022-08-09T09:58:02.225Z,2.40
2022-08-09T09:58:19.932Z,2.30
2022-08-09T09:59:17.622Z,2.40
2022-08-09T10:00:17.562Z,2.60
2022-08-09T10:01:30.973Z,2.50
2022-08-09T10:02:18.430Z,2.20
2022-08-09T10:03:17.466Z,2.20
2022-08-09T10:04:30.609Z,2.10
2022-08-09T10:05:27.080Z,2.10
2022-08-09T10:06:18.379Z,2.00
2022-08-09T10:07:17.371Z,2.10
2022-08-09T10:08:27.585Z,2.10
2022-08-09T10:09:22.614Z,2.00
2022-08-09T10:10:18.534Z,2.00
2022-08-09T10:11:53.788Z,1.90
2022-08-09T10:12:28.476Z,2.10
2022-08-09T10:13:24.644Z,2.20
2022-08-09T10:14:18.405Z,2.30
2022-08-09T10:15:50.774Z,2.30
2022-08-09T10:16:56.755Z,2.10
2022-08-09T10:17:51.439Z,2.40
2022-08-09T10:18:18.462Z,2.40
2022-08-09T10:19:17.261Z,2.20
2022-08-09T10:20:17.246Z,2.20
2022-08-09T10:21:18.362Z,2.10
2022-08-09T10:22:17.207Z,2.00
2022-08-09T10:23:20.354Z,2.10
2022-08-09T10:24:25.571Z,2.20
2022-08-09T10:25:21.049Z,2.20
2022-08-09T10:26:19.493Z,2.40
2022-08-09T10:27:22.195Z,2.00
2022-08-09T10:28:19.089Z,2.20
2022-08-09T10:29:36.122Z,2.00
2022-08-09T10:32:39.962Z,2.10
2022-08-09T10:34:04.828Z,1.90
2022-08-09T10:34:32.716Z,2.10
2022-08-09T10:35:18.070Z,2.20
2022-08-09T10:36:17.082Z,2.10
2022-08-09T10:37:17.048Z,2.10
2022-08-09T10:38:33.934Z,2.00
2022-08-09T10:39:19.342Z,1.80
2022-08-09T10:40:33.782Z,1.90
2022-08-09T10:41:18.119Z,1.80
2022-08-09T10:42:17.067Z,1.80
2022-08-09T10:43:16.985Z,1.90
2022-08-09T10:44:16.986Z,1.50
2022-08-09T10:45:17.102Z,1.80
2022-08-09T10:46:23.437Z,1.50
2022-08-09T10:48:13.411Z,2.00
2022-08-09T10:48:29.892Z,1.70
2022-08-09T10:49:18.012Z,1.70
2022-08-09T10:50:16.971Z,1.90
2022-08-09T10:51:17.981Z,2.10
2022-08-09T10:52:20.611Z,1.80
2022-08-09T10:53:16.872Z,1.70
2022-08-09T10:54:16.890Z,1.80
2022-08-09T10:55:16.852Z,1.90
2022-08-09T10:56:17.580Z,1.70
2022-08-09T10:57:17.841Z,1.60
2022-08-09T10:58:17.277Z,1.80
2022-08-09T10:59:17.802Z,1.80
2022-08-09T11:00:17.794Z,2.00
2022-08-09T11:03:11.986Z,1.70
2022-08-09T11:03:15.111Z,1.70
2022-08-09T11:03:47.152Z,1.70
2022-08-09T11:04:28.283Z,1.60
2022-08-09T11:05:25.287Z,1.60
2022-08-09T11:06:17.725Z,1.60
2022-08-09T11:07:16.726Z,1.60
2022-08-09T11:08:16.697Z,1.70
2022-08-09T11:09:16.695Z,1.70
2022-08-09T11:10:16.674Z,1.60
2022-08-09T11:11:16.665Z,1.40
2022-08-09T11:12:17.430Z,1.50
2022-08-09T11:13:49.467Z,1.50
2022-08-09T11:14:17.631Z,1.60
2022-08-09T11:15:18.968Z,1.50
2022-08-09T11:16:16.611Z,1.50
2022-08-09T11:17:19.306Z,1.60
2022-08-09T11:18:17.296Z,1.40
2022-08-09T11:19:16.598Z,1.60
2022-08-09T11:20:22.963Z,1.50
2022-08-09T11:21:17.644Z,1.70
2022-08-09T11:22:24.259Z,1.60
2022-08-09T11:23:24.114Z,1.60
2022-08-09T11:24:17.608Z,1.50
2022-08-09T11:25:16.505Z,1.80
2022-08-09T11:26:16.501Z,1.50
2022-08-09T11:27:16.528Z,1.60
2022-08-09T11:28:27.892Z,1.70
2022-08-09T11:29:17.479Z,1.80
2022-08-09T11:30:33.772Z,1.70
2022-08-09T11:31:17.460Z,1.70
2022-08-09T11:32:17.543Z,1.80
2022-08-09T11:33:16.455Z,1.70
2022-08-09T11:34:16.403Z,1.60
2022-08-09T11:35:16.403Z,1.70
2022-08-09T11:36:26.721Z,1.60
2022-08-09T11:37:17.906Z,1.70
2022-08-09T11:38:16.436Z,1.80
2022-08-09T11:39:16.686Z,1.80
2022-08-09T11:40:17.949Z,1.70
2022-08-09T11:41:16.337Z,1.70
2022-08-09T11:42:16.424Z,1.60
2022-08-09T11:43:16.315Z,1.70
2022-08-09T11:44:16.367Z,1.70
2022-08-09T11:45:16.287Z,1.60
2022-08-09T11:46:26.700Z,1.70
2022-08-09T11:47:17.269Z,1.70
2022-08-09T11:48:25.048Z,1.70
2022-08-09T11:49:17.302Z,1.60
2022-08-09T11:50:56.797Z,1.70
2022-08-09T11:52:53.852Z,1.70
2022-08-09T11:53:11.448Z,1.70
2022-08-09T11:54:01.042Z,1.80
2022-08-09T11:54:27.733Z,1.70
2022-08-09T11:55:17.175Z,1.90
2022-08-09T11:56:19.457Z,1.80
2022-08-09T11:57:16.158Z,1.70
2022-08-09T11:58:16.148Z,1.80
2022-08-09T11:59:16.153Z,1.70
2022-08-09T12:00:17.962Z,1.70
2022-08-09T12:02:15.894Z,1.60
2022-08-09T12:02:37.185Z,1.70
2022-08-09T12:03:55.728Z,1.70
2022-08-09T12:04:23.517Z,1.80
2022-08-09T12:05:17.702Z,1.50
2022-08-09T12:06:17.072Z,1.80
2022-08-09T12:07:16.051Z,1.70
2022-08-09T12:08:21.628Z,1.60
2022-08-09T12:09:19.695Z,1.70
2022-08-09T12:10:38.475Z,1.70
2022-08-09T12:11:17.048Z,1.70
2022-08-09T12:12:20.375Z,1.50
2022-08-09T12:14:09.600Z,1.70
2022-08-09T12:14:41.071Z,1.60
2022-08-09T12:15:16.986Z,1.60
2022-08-09T12:16:30.450Z,1.70
2022-08-09T12:17:27.552Z,1.40
2022-08-09T12:18:16.938Z,1.60
2022-08-09T12:19:15.935Z,1.50
2022-08-09T12:20:16.593Z,1.70
2022-08-09T12:21:28.434Z,1.70
2022-08-09T12:22:16.978Z,1.60
2022-08-09T12:23:15.877Z,1.60
2022-08-09T12:24:16.876Z,1.50
2022-08-09T12:25:15.861Z,1.50
2022-08-09T12:26:19.755Z,1.60
2022-08-09T12:29:15.034Z,1.50
2022-08-09T12:29:15.497Z,1.60
2022-08-09T12:29:33.468Z,1.60
2022-08-09T12:30:36.814Z,1.50
2022-08-09T12:31:31.051Z,1.40
2022-08-09T12:32:16.797Z,1.50
2022-08-09T12:33:15.769Z,1.40
2022-08-09T12:34:15.771Z,1.60
2022-08-09T12:35:19.153Z,1.70
2022-08-09T12:36:31.302Z,1.70
2022-08-09T12:37:23.649Z,1.70
2022-08-09T12:38:16.718Z,1.50
2022-08-09T12:39:16.794Z,1.30
2022-08-09T12:40:15.687Z,1.50
2022-08-09T12:41:15.677Z,1.60
2022-08-09T12:42:16.266Z,1.30
2022-08-09T12:43:15.655Z,1.40
2022-08-09T12:44:15.652Z,1.40
2022-08-09T12:45:32.177Z,1.50
2022-08-09T12:46:16.631Z,1.50
2022-08-09T12:47:15.618Z,1.50
2022-08-09T12:48:28.032Z,1.30
2022-08-09T12:49:16.742Z,1.30
2022-08-09T12:50:15.592Z,1.50
2022-08-09T12:51:30.346Z,1.30
2022-08-09T12:52:16.565Z,1.30
2022-08-09T12:53:18.257Z,1.30
2022-08-09T12:54:15.540Z,1.40
2022-08-09T12:56:14.892Z,1.40
2022-08-09T12:56:29.779Z,1.50
2022-08-09T12:57:16.507Z,1.30
2022-08-09T12:58:28.067Z,1.40
2022-08-09T12:59:16.485Z,1.40
2022-08-09T13:00:15.490Z,1.30
2022-08-09T13:01:15.533Z,1.30
2022-08-09T13:02:15.456Z,1.40
2022-08-09T13:03:24.343Z,1.30
2022-08-09T13:04:27.511Z,1.40
2022-08-09T13:05:16.441Z,1.40
2022-08-09T13:06:19.638Z,1.30
2022-08-09T13:07:16.921Z,1.30
2022-08-09T13:08:15.394Z,1.30
2022-08-09T13:09:20.230Z,1.40
2022-08-09T13:10:15.411Z,1.30
2022-08-09T13:11:24.332Z,1.40
2022-08-09T13:12:16.349Z,1.30
2022-08-09T13:13:15.346Z,1.10
2022-08-09T13:14:43.614Z,1.30
2022-08-09T13:15:16.328Z,1.30
2022-08-09T13:16:15.305Z,1.50
2022-08-09T13:17:15.815Z,1.40
2022-08-09T13:18:17.766Z,1.40
2022-08-09T13:19:15.272Z,1.40
2022-08-09T13:20:22.755Z,1.30
2022-08-09T13:22:36.845Z,1.40